Worthington, Iowa
Current Conditions -  °F | °C
As of 11:55 PM on Wednesday 28 Jan 2015 (Local Time) from KMXO Reporting Station
Clear Clear  
Wind Chill: 27°   Ceiling: Unl
Heat Index: 32°   Visibility: 7mi
Dew Point: 32°   Wind: 5mph
Humidity: 100%   Direction: 40°NE
Pressure: 29.7"   Gusts: NA
Location:  42.4°N, 91.12°W
Report Text: KMXO 290555Z AUTO 04004KT 7SM CLR M00/M00 A2970 RMK AO2
Loading
Personal Weather Stations






























Interactive Weather Map New forecast layout! Learn more

10-Day Weather Forecast

Advertisements
Track Severe Weather on mobile